createdAt,value
2022-08-18T00:04:35.260Z,26.52
2022-08-18T00:09:41.570Z,20.60
2022-08-18T00:14:45.538Z,24.58
2022-08-18T00:19:50.745Z,19.65
2022-08-18T00:24:57.502Z,22.52
2022-08-18T00:30:02.942Z,20.77
2022-08-18T00:35:11.068Z,25.02
2022-08-18T00:40:17.618Z,19.88
2022-08-18T00:45:25.468Z,20.27
2022-08-18T00:50:35.960Z,24.45
2022-08-18T00:55:40.397Z,22.10
2022-08-18T01:00:55.077Z,22.92
2022-08-18T01:06:03.421Z,22.20
2022-08-18T01:11:06.773Z,26.35
2022-08-18T01:16:24.159Z,22.73
2022-08-18T01:21:48.311Z,23.98
2022-08-18T01:26:53.457Z,24.65
2022-08-18T01:31:56.977Z,22.95
2022-08-18T01:37:00.453Z,24.70
2022-08-18T01:42:05.726Z,24.55
2022-08-18T01:47:10.882Z,24.27
2022-08-18T01:52:21.192Z,29.42
2022-08-18T01:57:26.310Z,29.48
2022-08-18T02:02:34.042Z,30.17
2022-08-18T02:07:38.176Z,26.50
2022-08-18T02:12:45.384Z,29.02
2022-08-18T02:17:48.753Z,40.47
2022-08-18T02:22:52.801Z,29.42
2022-08-18T02:27:57.767Z,27.77
2022-08-18T02:33:01.760Z,27.77
2022-08-18T02:38:07.837Z,28.08
2022-08-18T02:43:12.562Z,28.50
2022-08-18T02:48:16.001Z,28.63
2022-08-18T02:53:23.235Z,30.60
2022-08-18T02:58:31.813Z,29.70
2022-08-18T03:03:37.512Z,30.67
2022-08-18T03:08:40.802Z,28.15
2022-08-18T04:20:59.182Z,33.63
2022-08-18T04:26:05.774Z,32.13
2022-08-18T04:31:12.253Z,30.30
2022-08-18T04:36:18.750Z,28.05
2022-08-18T04:41:27.818Z,30.83
2022-08-18T04:46:36.242Z,31.20
2022-08-18T04:52:37.170Z,30.20
2022-08-18T04:57:12.012Z,31.73
2022-08-18T05:02:18.575Z,28.23
2022-08-18T05:07:23.931Z,32.40
2022-08-18T05:12:27.448Z,27.88
2022-08-18T05:17:31.361Z,32.30
2022-08-18T05:22:40.855Z,34.08
2022-08-18T05:27:45.160Z,35.80
2022-08-18T05:32:50.504Z,33.17
2022-08-18T05:38:18.284Z,91.28
2022-08-18T05:43:22.146Z,30.80
2022-08-18T05:48:25.963Z,26.38
2022-08-18T05:53:45.439Z,29.95
2022-08-18T05:58:53.039Z,28.42
2022-08-18T06:04:04.086Z,37.28
2022-08-18T06:09:14.395Z,28.50
2022-08-18T06:14:19.138Z,33.00
2022-08-18T06:19:43.382Z,22.27
2022-08-18T06:24:55.327Z,34.67
2022-08-18T06:30:08.551Z,24.40
2022-08-18T06:35:22.349Z,29.52
2022-08-18T06:40:28.032Z,20.40
2022-08-18T06:45:39.974Z,19.35
2022-08-18T06:50:51.901Z,17.05
2022-08-18T06:55:57.233Z,12.65
2022-08-18T07:01:03.601Z,15.60
2022-08-18T07:06:11.657Z,13.65
2022-08-18T07:11:22.287Z,10.75
2022-08-18T07:16:54.951Z,12.55
2022-08-18T07:22:04.033Z,11.38
2022-08-18T07:27:11.510Z,14.38
2022-08-18T07:32:22.288Z,14.68
2022-08-18T07:37:34.658Z,16.83
2022-08-18T07:43:01.184Z,20.65
2022-08-18T07:48:37.104Z,12.57
2022-08-18T07:53:55.916Z,22.90
2022-08-18T07:59:09.204Z,13.68
2022-08-18T08:04:25.735Z,16.75
2022-08-18T08:09:39.409Z,15.60
2022-08-18T08:14:46.635Z,16.67
2022-08-18T08:20:04.152Z,18.67
2022-08-18T08:25:44.656Z,15.02
2022-08-18T08:31:05.202Z,12.88
2022-08-18T08:36:25.764Z,14.13
2022-08-18T08:41:35.573Z,9.70
2022-08-18T08:46:47.269Z,13.25
2022-08-18T08:51:58.210Z,9.70
2022-08-18T08:57:04.321Z,13.13
2022-08-18T09:02:46.798Z,11.07
2022-08-18T09:08:15.245Z,9.93
2022-08-18T09:13:39.061Z,15.95
2022-08-18T09:18:55.059Z,8.60
2022-08-18T09:24:10.896Z,10.55
2022-08-18T09:29:21.972Z,17.65
2022-08-18T09:34:45.310Z,12.25
2022-08-18T09:40:19.003Z,11.13
2022-08-18T09:45:57.593Z,13.65
2022-08-18T09:51:39.945Z,10.30
2022-08-18T09:57:19.275Z,14.77
2022-08-18T10:03:10.425Z,9.57
2022-08-18T10:08:48.591Z,11.10
2022-08-18T10:14:07.093Z,9.23
2022-08-18T10:19:23.165Z,11.68
2022-08-18T10:24:46.055Z,8.27
2022-08-18T10:29:55.533Z,12.90
2022-08-18T10:35:00.202Z,12.48
2022-08-18T10:40:16.358Z,12.57
2022-08-18T10:45:27.874Z,8.48
2022-08-18T10:50:39.454Z,8.52
2022-08-18T10:55:53.791Z,9.70
2022-08-18T11:01:08.848Z,9.52
2022-08-18T11:06:21.619Z,8.88
2022-08-18T11:11:38.230Z,8.00
2022-08-18T11:16:54.029Z,10.50
2022-08-18T11:21:57.727Z,10.27
2022-08-18T11:27:09.774Z,22.98
2022-08-18T11:32:25.241Z,9.23
2022-08-18T11:37:48.528Z,10.18
2022-08-18T11:42:59.972Z,10.10
2022-08-18T11:53:58.250Z,9.02
2022-08-18T11:59:05.459Z,11.90
2022-08-18T12:04:16.759Z,8.45
2022-08-18T12:15:04.868Z,12.43
2022-08-18T12:20:17.285Z,7.65
2022-08-18T12:25:25.467Z,11.05
2022-08-18T12:30:30.525Z,8.95
2022-08-18T12:35:35.637Z,8.60
2022-08-18T12:40:40.154Z,10.00
2022-08-18T12:45:46.389Z,7.05
2022-08-18T12:50:58.398Z,11.32
2022-08-18T12:56:04.357Z,8.75
2022-08-18T13:01:09.258Z,8.05
2022-08-18T13:06:14.972Z,10.63
2022-08-18T13:11:24.852Z,13.88
2022-08-18T13:16:53.483Z,6.95
2022-08-18T13:21:58.274Z,7.20
2022-08-18T13:27:03.937Z,7.75
2022-08-18T13:37:28.661Z,6.45
2022-08-18T13:42:50.332Z,9.43
2022-08-18T13:47:58.315Z,6.75
2022-08-18T13:53:02.317Z,11.02
2022-08-18T13:58:20.488Z,8.32
2022-08-18T14:03:42.557Z,9.40
2022-08-18T14:08:52.393Z,7.18
2022-08-18T14:13:57.803Z,10.63
2022-08-18T14:19:22.977Z,13.23
2022-08-18T14:24:48.931Z,8.15
2022-08-18T14:29:55.222Z,6.85
2022-08-18T14:36:04.096Z,8.38
2022-08-18T14:40:25.417Z,8.02
2022-08-18T14:45:35.452Z,8.88
2022-08-18T14:50:47.870Z,9.65
2022-08-18T14:55:54.920Z,9.50
2022-08-18T15:01:01.131Z,7.88
2022-08-18T15:06:07.306Z,7.28
2022-08-18T15:11:12.046Z,7.78
2022-08-18T15:16:17.436Z,29.05
2022-08-18T15:21:39.622Z,9.10
2022-08-18T15:26:43.994Z,9.50
2022-08-18T15:31:50.783Z,8.13
2022-08-18T15:36:55.849Z,9.40
2022-08-18T15:41:59.863Z,8.60
2022-08-18T15:47:09.330Z,26.20
2022-08-18T15:52:14.637Z,13.45
2022-08-18T15:57:35.225Z,6.95
2022-08-18T16:02:44.658Z,9.98
2022-08-18T16:07:56.606Z,10.18
2022-08-18T16:13:01.779Z,6.97
2022-08-18T16:18:06.749Z,9.48
2022-08-18T16:23:12.287Z,10.43
2022-08-18T16:28:15.721Z,9.18
2022-08-18T16:33:19.256Z,9.65
2022-08-18T16:38:24.216Z,9.35
2022-08-18T16:43:27.696Z,8.02
2022-08-18T16:48:31.254Z,10.02
2022-08-18T16:53:39.786Z,11.80
2022-08-18T16:59:01.321Z,8.70
2022-08-18T17:04:13.394Z,15.30
2022-08-18T17:09:19.784Z,13.18
2022-08-18T17:14:27.906Z,15.32
2022-08-18T17:19:33.701Z,8.63
2022-08-18T17:24:42.642Z,8.82
2022-08-18T17:30:01.612Z,8.48
2022-08-18T17:35:07.362Z,15.02
2022-08-18T17:40:18.046Z,7.70
2022-08-18T17:45:23.303Z,13.90
2022-08-18T17:50:51.896Z,11.85
2022-08-18T17:56:01.572Z,8.73
2022-08-18T18:01:07.729Z,13.27
2022-08-18T18:06:18.411Z,10.02
2022-08-18T18:11:32.183Z,16.08
2022-08-18T18:16:36.044Z,8.32
2022-08-18T18:22:00.200Z,15.13
2022-08-18T18:27:25.127Z,15.23
2022-08-18T18:32:31.977Z,9.38
2022-08-18T18:37:47.151Z,10.35
2022-08-18T18:42:52.413Z,19.90
2022-08-18T18:48:06.556Z,12.15
2022-08-18T18:53:25.857Z,13.25
2022-08-18T18:58:45.056Z,12.43
2022-08-18T19:03:58.920Z,13.40
2022-08-18T19:09:10.321Z,14.35
2022-08-18T19:14:19.807Z,11.75
2022-08-18T19:19:38.365Z,9.68
2022-08-18T19:24:50.806Z,12.57
2022-08-18T19:30:02.955Z,12.20
2022-08-18T19:35:12.292Z,14.88
2022-08-18T19:40:20.402Z,11.05
2022-08-18T19:45:33.034Z,9.55
2022-08-18T19:50:43.198Z,10.95
2022-08-18T19:56:02.609Z,13.73
2022-08-18T20:06:52.159Z,18.25
2022-08-18T20:12:11.505Z,11.70
2022-08-18T20:17:20.301Z,9.93
2022-08-18T20:22:34.570Z,9.13
2022-08-18T20:27:40.371Z,8.77
2022-08-18T20:32:45.120Z,11.68
2022-08-18T20:37:48.592Z,8.50
2022-08-18T20:42:57.565Z,12.95
2022-08-18T20:48:29.143Z,10.45
2022-08-18T20:53:53.535Z,11.88
2022-08-18T20:59:08.934Z,8.90
2022-08-18T21:04:13.887Z,8.13
2022-08-18T21:09:19.046Z,8.95
2022-08-18T21:14:27.157Z,12.90
2022-08-18T21:19:42.216Z,8.18
2022-08-18T21:24:49.923Z,7.82
2022-08-18T21:29:54.592Z,11.90
2022-08-18T21:35:07.901Z,11.00
2022-08-18T21:40:13.930Z,7.88
2022-08-18T21:45:23.626Z,9.82
2022-08-18T21:50:30.653Z,8.80
2022-08-18T21:55:39.887Z,9.77
2022-08-18T22:00:45.668Z,8.60
2022-08-18T22:06:00.847Z,8.50
2022-08-18T22:12:02.577Z,8.85
2022-08-18T22:17:30.322Z,9.75
2022-08-18T22:22:53.791Z,9.02
2022-08-18T22:28:00.505Z,9.40
2022-08-18T22:33:03.842Z,11.30
2022-08-18T22:38:08.676Z,9.18
2022-08-18T22:43:12.241Z,9.68
2022-08-18T22:48:16.576Z,11.52
2022-08-18T22:53:21.809Z,11.55
2022-08-18T22:58:28.219Z,9.85
2022-08-18T23:03:31.955Z,12.90
2022-08-18T23:08:55.635Z,10.63
2022-08-18T23:19:04.643Z,13.30
2022-08-18T23:24:10.772Z,11.30
2022-08-18T23:29:14.742Z,10.52
2022-08-18T23:34:19.922Z,12.38
2022-08-18T23:39:26.514Z,13.65
2022-08-18T23:44:30.551Z,11.10
2022-08-18T23:49:36.511Z,11.32
2022-08-18T23:54:41.195Z,13.70
2022-08-18T23:59:44.507Z,15.43
